Addicks, Texas
Current Conditions -  °F | °C
As of 3:53 AM on Wednesday 26 Nov 2014 (Local Time) from KSGR Reporting Station
Clear Clear  
Wind Chill: 46°   Ceiling: Unl
Heat Index: 46°   Visibility: 10mi
Dew Point: 39°   Wind: 3mph
Humidity: 76%   Direction: 220°SW
Pressure: 30.21"   Gusts: NA
Location:  29.7757°N, 95.6037°W
Report Text: KSGR 260953Z 22003KT 10SM CLR 08/04 A3021 RMK AO2 SLP231 T00780039
Loading
Personal Weather Stations






























Interactive Weather Map New forecast layout! Learn more

10-Day Weather Forecast

Advertisements
Track Severe Weather on mobile